Time;durP1;ratioP1;P1;durP2;ratioP2;P2;SDS_P1;SDS_P2;PMS_P1;PMS_P2;Temp;Humidity;BMP_temperature;BMP_pressure;BME280_temperature;BME280_humidity;BME280_pressure;Samples;Min_cycle;Max_cycle;Signal;HPM_P1;HPM_P2
2023/09/30 00:00:15;;;;;;;15.05;6.90;;;18.00;99.90;;;;;;4928089;29;20404;-59
2023/09/30 00:02:40;;;;;;;16.13;6.82;;;18.00;99.90;;;;;;4923564;29;20031;-59
2023/09/30 00:05:07;;;;;;;14.35;6.90;;;18.00;99.90;;;;;;4927226;29;20083;-59
2023/09/30 00:07:33;;;;;;;19.30;6.65;;;18.00;99.90;;;;;;4929340;29;20039;-59
2023/09/30 00:09:59;;;;;;;14.45;6.45;;;18.00;99.90;;;;;;4909695;29;20404;-59
2023/09/30 00:12:25;;;;;;;15.20;6.97;;;18.00;99.90;;;;;;4925258;29;20082;-60
2023/09/30 00:14:50;;;;;;;12.38;5.95;;;18.00;99.90;;;;;;4924759;29;20051;-60
2023/09/30 00:17:16;;;;;;;17.13;6.20;;;18.10;99.90;;;;;;4925560;29;20020;-59
2023/09/30 00:19:41;;;;;;;14.15;7.13;;;18.10;99.90;;;;;;4926439;29;20059;-59
2023/09/30 00:22:07;;;;;;;14.00;6.88;;;18.00;99.90;;;;;;4926872;29;20428;-59
2023/09/30 00:24:34;;;;;;;14.82;6.93;;;18.00;99.90;;;;;;4925373;28;20024;-59
2023/09/30 00:26:59;;;;;;;17.98;6.25;;;18.00;99.90;;;;;;4924465;29;20063;-60
2023/09/30 00:29:26;;;;;;;13.57;6.55;;;18.00;99.90;;;;;;4928086;29;20448;-60
2023/09/30 00:31:52;;;;;;;15.30;6.95;;;18.00;99.90;;;;;;4926322;28;20055;-60
2023/09/30 00:34:17;;;;;;;12.10;7.07;;;18.00;99.90;;;;;;4924278;29;20066;-60
2023/09/30 00:36:43;;;;;;;14.00;6.10;;;18.00;99.90;;;;;;4925903;29;20027;-59
2023/09/30 00:39:09;;;;;;;14.95;6.07;;;17.90;99.90;;;;;;4927445;29;20496;-59
2023/09/30 00:41:36;;;;;;;11.63;5.53;;;17.90;99.90;;;;;;4923800;29;20056;-60
2023/09/30 00:44:02;;;;;;;15.90;5.43;;;17.90;99.90;;;;;;4925786;29;20020;-59
2023/09/30 00:46:40;;;;;;;13.63;6.20;;;17.90;99.90;;;;;;4928706;29;20039;-59
2023/09/30 00:49:05;;;;;;;14.40;6.65;;;17.80;99.90;;;;;;4927164;29;20048;-59
2023/09/30 00:51:33;;;;;;;17.55;6.30;;;17.70;99.90;;;;;;4922596;29;20448;-59
2023/09/30 00:53:59;;;;;;;15.15;6.80;;;17.70;99.90;;;;;;4927335;29;20128;-59
2023/09/30 00:56:27;;;;;;;19.08;7.40;;;17.70;99.90;;;;;;4925231;29;20043;-59
2023/09/30 00:58:53;;;;;;;16.77;6.78;;;17.60;99.90;;;;;;4925775;29;20036;-59
2023/09/30 01:01:20;;;;;;;17.55;6.82;;;17.60;99.90;;;;;;4906967;29;20674;-60
2023/09/30 01:03:46;;;;;;;21.13;7.18;;;17.50;99.90;;;;;;4925588;29;20044;-59
2023/09/30 01:06:13;;;;;;;16.38;8.93;;;17.50;99.90;;;;;;4926708;29;20054;-59
2023/09/30 01:08:39;;;;;;;24.60;9.70;;;17.40;99.90;;;;;;4926312;29;20036;-61
2023/09/30 01:11:05;;;;;;;21.92;9.50;;;17.20;99.90;;;;;;4913784;29;20030;-60
2023/09/30 01:13:35;;;;;;;18.40;10.00;;;17.00;99.90;;;;;;4923676;29;20032;-61
2023/09/30 01:16:09;;;;;;;22.33;10.60;;;16.70;99.90;;;;;;4925399;29;20078;-60
2023/09/30 01:18:36;;;;;;;21.40;10.63;;;16.60;99.90;;;;;;4925639;29;20083;-60
2023/09/30 01:21:06;;;;;;;22.45;10.95;;;16.40;99.90;;;;;;4925123;29;20044;-61
2023/09/30 01:23:33;;;;;;;1127.45;81.05;;;16.30;99.90;;;;;;4926157;29;20028;-59
2023/09/30 01:26:03;;;;;;;28.00;9.98;;;16.10;99.90;;;;;;4925014;29;20117;-60
2023/09/30 01:28:30;;;;;;;24.30;10.55;;;16.10;99.90;;;;;;4926279;29;20091;-60
2023/09/30 01:30:56;;;;;;;28.98;11.15;;;16.00;99.90;;;;;;4925845;29;20027;-61
2023/09/30 01:33:22;;;;;;;23.70;9.93;;;16.00;99.90;;;;;;4924126;29;20039;-60
2023/09/30 01:35:47;;;;;;;22.63;10.27;;;15.90;99.90;;;;;;4923652;29;20495;-60
2023/09/30 01:38:13;;;;;;;28.60;11.70;;;15.90;99.90;;;;;;4924613;29;20034;-59
2023/09/30 01:40:39;;;;;;;27.10;10.00;;;15.90;99.90;;;;;;4924474;29;20036;-60
2023/09/30 01:43:05;;;;;;;28.02;11.23;;;15.90;99.90;;;;;;4927906;29;20563;-60
2023/09/30 01:45:30;;;;;;;23.70;10.52;;;15.90;99.90;;;;;;4930589;29;20087;-60
2023/09/30 01:47:56;;;;;;;29.08;11.38;;;15.80;99.90;;;;;;4927219;29;20036;-60
2023/09/30 01:50:21;;;;;;;36.67;11.50;;;15.80;99.90;;;;;;4928583;29;20043;-60
2023/09/30 01:52:47;;;;;;;23.02;10.75;;;15.80;99.90;;;;;;4928162;29;20088;-58
2023/09/30 01:55:13;;;;;;;25.10;10.23;;;15.80;99.90;;;;;;4928653;29;20039;-58
2023/09/30 01:57:38;;;;;;;15.50;8.15;;;15.80;99.90;;;;;;4929863;28;20043;-59
2023/09/30 02:00:05;;;;;;;16.92;8.68;;;15.70;99.90;;;;;;4926611;29;20040;-60
2023/09/30 02:02:31;;;;;;;18.67;7.57;;;15.70;99.90;;;;;;4929037;29;20035;-60
2023/09/30 02:04:57;;;;;;;19.75;6.68;;;15.70;99.90;;;;;;4928985;28;20043;-59
2023/09/30 02:07:22;;;;;;;18.05;7.72;;;15.60;99.90;;;;;;4929858;29;20047;-59
2023/09/30 02:09:49;;;;;;;74.47;10.88;;;15.50;99.90;;;;;;4927839;29;20039;-60
2023/09/30 02:12:15;;;;;;;11.02;4.50;;;15.40;99.90;;;;;;4929840;29;20023;-59
2023/09/30 02:14:40;;;;;;;18.08;4.60;;;15.30;99.90;;;;;;4928692;29;20024;-59
2023/09/30 02:17:06;;;;;;;6.60;3.40;;;15.30;99.90;;;;;;4929712;29;20520;-60
2023/09/30 02:19:33;;;;;;;8.13;2.80;;;15.20;99.90;;;;;;4926253;29;20191;-59
2023/09/30 02:21:59;;;;;;;1999.90;999.90;;;15.20;99.90;;;;;;4926855;29;20028;-59
2023/09/30 02:24:25;;;;;;;1999.90;999.90;;;15.10;99.90;;;;;;4927384;29;20416;-58
2023/09/30 02:26:50;;;;;;;6.00;3.28;;;15.00;99.90;;;;;;4927673;29;20024;-59
2023/09/30 02:29:16;;;;;;;6.85;2.25;;;15.00;99.90;;;;;;4928294;29;20027;-59
2023/09/30 02:31:42;;;;;;;2.53;1.50;;;15.00;99.90;;;;;;4927987;29;20029;-60
2023/09/30 02:34:08;;;;;;;4.75;1.95;;;14.80;99.90;;;;;;4928030;29;20895;-59
2023/09/30 02:36:38;;;;;;;4.88;1.60;;;14.80;99.90;;;;;;4928911;28;20024;-60
2023/09/30 02:39:05;;;;;;;2.25;1.40;;;14.80;99.90;;;;;;4928597;29;20028;-60
2023/09/30 02:41:30;;;;;;;3.95;1.20;;;14.70;99.90;;;;;;4927242;29;20039;-60
2023/09/30 02:43:56;;;;;;;4.65;2.25;;;14.70;99.90;;;;;;4926052;28;20024;-60
2023/09/30 02:46:22;;;;;;;3.83;2.05;;;14.60;99.90;;;;;;4926786;29;20100;-60
2023/09/30 02:48:47;;;;;;;3.40;1.50;;;14.60;99.90;;;;;;4929740;29;20107;-60
2023/09/30 02:51:14;;;;;;;2.42;1.30;;;14.70;99.90;;;;;;4928392;29;20045;-59
2023/09/30 02:53:40;;;;;;;5.47;1.60;;;14.70;99.90;;;;;;4927785;29;20028;-59
2023/09/30 02:56:06;;;;;;;3.50;1.80;;;14.70;99.90;;;;;;4926990;29;20019;-60
2023/09/30 02:58:32;;;;;;;4.75;1.60;;;14.60;99.90;;;;;;4929574;29;20036;-59
2023/09/30 03:00:59;;;;;;;7.10;1.90;;;14.60;99.90;;;;;;4929995;29;20031;-60
2023/09/30 03:03:25;;;;;;;2.70;1.50;;;14.60;99.90;;;;;;4929249;29;20087;-60
2023/09/30 03:05:51;;;;;;;3.90;1.50;;;14.60;99.90;;;;;;4927984;29;20115;-59
2023/09/30 03:08:17;;;;;;;4.50;1.98;;;14.50;99.90;;;;;;4926985;29;20043;-59
2023/09/30 03:10:43;;;;;;;2.85;1.80;;;14.50;99.90;;;;;;4928416;29;20032;-60
2023/09/30 03:13:08;;;;;;;4.18;1.60;;;14.40;99.90;;;;;;4926720;29;20036;-60
2023/09/30 03:15:35;;;;;;;4.53;1.90;;;14.30;99.90;;;;;;4926795;29;20512;-59
2023/09/30 03:18:01;;;;;;;3.63;1.52;;;14.30;99.90;;;;;;4928338;28;20032;-59
2023/09/30 03:20:27;;;;;;;6.30;2.13;;;14.30;99.90;;;;;;4928495;29;20059;-60
2023/09/30 03:22:52;;;;;;;5.03;2.25;;;14.30;99.90;;;;;;4925926;29;20036;-60
2023/09/30 03:25:20;;;;;;;3.58;2.05;;;14.30;99.90;;;;;;4924988;29;20489;-59
2023/09/30 03:27:47;;;;;;;3.53;1.92;;;14.30;99.90;;;;;;4924132;29;20588;-58
2023/09/30 03:30:14;;;;;;;3.47;1.88;;;14.30;99.90;;;;;;4931122;29;20040;-59
2023/09/30 03:32:40;;;;;;;6.35;1.95;;;14.20;99.90;;;;;;4928010;29;20531;-59
2023/09/30 03:35:10;;;;;;;4.28;1.60;;;14.20;99.90;;;;;;4930242;29;20111;-60
2023/09/30 03:37:36;;;;;;;3.23;1.83;;;14.20;99.90;;;;;;4927368;29;20424;-60
2023/09/30 03:40:11;;;;;;;6.25;1.58;;;14.30;99.90;;;;;;4923371;29;20112;-58
2023/09/30 03:42:39;;;;;;;6.68;2.45;;;14.30;99.90;;;;;;4928121;29;20031;-59
2023/09/30 03:45:07;;;;;;;5.30;1.85;;;14.20;99.90;;;;;;4929318;29;20023;-59
2023/09/30 03:47:34;;;;;;;5.85;2.00;;;14.20;99.90;;;;;;4927135;29;20123;-59
2023/09/30 03:49:59;;;;;;;6.13;1.90;;;14.10;99.90;;;;;;4926674;29;20067;-60
2023/09/30 03:52:26;;;;;;;2.83;1.50;;;14.10;99.90;;;;;;4926695;28;20622;-60
2023/09/30 03:54:53;;;;;;;3.63;1.63;;;14.20;99.90;;;;;;4927708;29;20640;-58
2023/09/30 03:57:19;;;;;;;5.05;2.10;;;14.10;99.90;;;;;;4925015;29;20087;-58
2023/09/30 03:59:48;;;;;;;2.88;1.50;;;14.10;99.90;;;;;;4925062;29;20043;-59
2023/09/30 04:02:14;;;;;;;5.65;1.80;;;14.10;99.90;;;;;;4924514;29;20067;-60
2023/09/30 04:04:40;;;;;;;4.10;1.75;;;14.10;99.90;;;;;;4927258;29;20032;-59
2023/09/30 04:07:06;;;;;;;3.88;1.67;;;14.20;99.90;;;;;;4925975;29;20036;-59
2023/09/30 04:09:33;;;;;;;5.03;1.80;;;14.10;99.90;;;;;;4926010;29;20512;-59
2023/09/30 04:11:58;;;;;;;4.20;1.83;;;14.10;99.90;;;;;;4926937;29;20023;-59
2023/09/30 04:14:25;;;;;;;4.10;1.85;;;14.20;99.90;;;;;;4926507;29;20043;-60
2023/09/30 04:16:50;;;;;;;6.10;2.13;;;14.20;99.90;;;;;;4926341;29;20654;-60
2023/09/30 04:19:16;;;;;;;4.75;1.70;;;14.10;99.90;;;;;;4925086;29;20031;-59
2023/09/30 04:21:42;;;;;;;3.72;1.70;;;14.10;99.90;;;;;;4923968;29;20135;-59
2023/09/30 04:24:09;;;;;;;3.95;2.05;;;14.10;99.90;;;;;;4925757;29;20038;-58
2023/09/30 04:26:34;;;;;;;7.97;1.90;;;14.10;99.90;;;;;;4925825;29;20016;-59
2023/09/30 04:29:01;;;;;;;4.22;1.30;;;14.00;99.90;;;;;;4925452;29;20038;-59
2023/09/30 04:31:28;;;;;;;4.05;1.77;;;14.10;99.90;;;;;;4925241;29;20032;-60
2023/09/30 04:33:54;;;;;;;4.20;2.47;;;14.10;99.90;;;;;;4928286;29;20119;-60
2023/09/30 04:36:20;;;;;;;6.68;1.58;;;14.10;99.90;;;;;;4926646;29;20131;-59
2023/09/30 04:38:47;;;;;;;4.63;2.05;;;14.10;99.90;;;;;;4928624;29;20040;-59
2023/09/30 04:41:13;;;;;;;4.72;1.70;;;14.10;99.90;;;;;;4925464;29;20047;-59
2023/09/30 04:43:38;;;;;;;3.55;1.42;;;14.10;99.90;;;;;;4927939;29;20396;-59
2023/09/30 04:46:05;;;;;;;3.72;1.95;;;14.10;99.90;;;;;;4924614;29;20388;-60
2023/09/30 04:48:32;;;;;;;3.22;1.42;;;14.10;99.90;;;;;;4927590;29;20520;-59
2023/09/30 04:50:57;;;;;;;8.45;1.70;;;14.10;99.90;;;;;;4925484;29;20400;-59
2023/09/30 04:53:23;;;;;;;7.78;1.80;;;14.10;99.90;;;;;;4927442;29;20088;-59
2023/09/30 04:55:51;;;;;;;3.22;1.50;;;14.10;99.90;;;;;;4926377;29;20547;-59
2023/09/30 04:58:17;;;;;;;8.85;1.65;;;14.10;99.90;;;;;;4925511;28;20055;-59
2023/09/30 05:00:43;;;;;;;4.70;2.10;;;14.10;99.90;;;;;;4922861;29;20043;-60
2023/09/30 05:03:09;;;;;;;4.28;1.73;;;14.00;99.90;;;;;;4924915;29;20036;-60
2023/09/30 05:05:35;;;;;;;3.53;1.40;;;14.00;99.90;;;;;;4924005;29;20126;-60
2023/09/30 05:08:01;;;;;;;4.35;1.90;;;14.10;99.90;;;;;;4926848;29;20035;-59
2023/09/30 05:10:27;;;;;;;5.35;1.50;;;14.10;99.90;;;;;;4928996;29;20032;-59
2023/09/30 05:12:54;;;;;;;8.40;1.70;;;14.10;99.90;;;;;;4926499;29;20039;-59
2023/09/30 05:15:21;;;;;;;4.38;1.35;;;14.10;99.90;;;;;;4926180;29;20028;-59
2023/09/30 05:17:47;;;;;;;3.13;1.33;;;14.10;99.90;;;;;;4928803;29;20032;-59
2023/09/30 05:20:17;;;;;;;8.10;1.90;;;14.10;99.90;;;;;;4933950;29;20074;-59
2023/09/30 05:22:45;;;;;;;3.65;1.58;;;14.20;99.90;;;;;;4931495;29;20028;-59
2023/09/30 05:25:12;;;;;;;4.50;1.60;;;14.20;99.90;;;;;;4930894;29;20020;-60
2023/09/30 05:27:37;;;;;;;4.72;1.30;;;14.20;99.90;;;;;;4932948;29;20119;-59
2023/09/30 05:30:05;;;;;;;5.38;2.22;;;14.20;99.90;;;;;;4933131;29;20164;-60
2023/09/30 05:32:31;;;;;;;3.42;1.55;;;14.20;99.90;;;;;;4932965;29;20024;-60
2023/09/30 05:34:57;;;;;;;3.90;2.00;;;14.20;99.90;;;;;;4932815;29;20490;-59
2023/09/30 05:37:25;;;;;;;5.30;1.55;;;14.20;99.90;;;;;;4933927;29;20778;-59
2023/09/30 05:39:50;;;;;;;4.20;1.35;;;14.20;99.90;;;;;;4929117;28;20043;-59
2023/09/30 05:42:18;;;;;;;4.30;1.88;;;14.20;99.90;;;;;;4932397;29;20027;-59
2023/09/30 05:44:44;;;;;;;2.88;1.50;;;14.20;99.90;;;;;;4930423;29;20151;-59
2023/09/30 05:47:10;;;;;;;4.18;1.50;;;14.20;99.90;;;;;;4931332;29;20027;-60
2023/09/30 05:49:36;;;;;;;4.93;1.30;;;14.10;99.90;;;;;;4933064;29;20028;-60
2023/09/30 05:52:02;;;;;;;3.88;1.30;;;14.10;99.90;;;;;;4931873;29;20027;-59
2023/09/30 05:54:28;;;;;;;5.70;1.55;;;14.00;99.90;;;;;;4930899;29;20032;-60
2023/09/30 05:56:54;;;;;;;5.32;1.90;;;14.00;99.90;;;;;;4931720;29;20044;-59
2023/09/30 05:59:20;;;;;;;3.95;1.38;;;14.00;99.90;;;;;;4931782;29;20499;-59
2023/09/30 06:01:46;;;;;;;3.63;1.60;;;14.00;99.90;;;;;;4934448;29;20032;-59
2023/09/30 06:04:12;;;;;;;2.65;1.75;;;13.90;99.90;;;;;;4933531;29;20036;-60
2023/09/30 06:06:38;;;;;;;2.50;1.23;;;13.90;99.90;;;;;;4933486;29;20088;-59
2023/09/30 06:09:07;;;;;;;2.22;1.38;;;13.80;99.90;;;;;;4934824;29;20032;-60
2023/09/30 06:11:33;;;;;;;3.75;1.58;;;13.80;99.90;;;;;;4934400;29;20047;-60
2023/09/30 06:14:00;;;;;;;1.70;1.10;;;13.70;99.90;;;;;;4931250;29;20043;-59
2023/09/30 06:16:26;;;;;;;4.13;1.60;;;13.70;99.90;;;;;;4933391;28;20122;-59
2023/09/30 06:18:53;;;;;;;3.33;1.55;;;13.70;99.90;;;;;;4935485;29;20036;-59
2023/09/30 06:21:24;;;;;;;6.05;2.00;;;13.70;99.90;;;;;;4934804;29;20491;-59
2023/09/30 06:23:52;;;;;;;4.28;1.60;;;13.70;99.90;;;;;;4917426;28;20118;-59
2023/09/30 06:26:18;;;;;;;5.00;1.70;;;13.70;99.90;;;;;;4932248;29;20327;-59
2023/09/30 06:28:45;;;;;;;5.50;1.60;;;13.80;99.90;;;;;;4928720;29;20032;-59
2023/09/30 06:31:10;;;;;;;3.00;1.33;;;13.80;99.90;;;;;;4929579;29;20027;-60
2023/09/30 06:33:38;;;;;;;2.15;1.23;;;13.90;99.90;;;;;;4930297;29;20492;-59
2023/09/30 06:36:09;;;;;;;3.85;1.48;;;13.90;99.90;;;;;;4928238;29;20047;-60
2023/09/30 06:38:34;;;;;;;2.30;1.17;;;13.90;99.90;;;;;;4929449;29;20028;-60
2023/09/30 06:41:01;;;;;;;5.25;1.40;;;13.90;99.90;;;;;;4930100;29;20111;-60
2023/09/30 06:43:27;;;;;;;5.25;1.55;;;14.00;99.90;;;;;;4932016;29;20506;-59
2023/09/30 06:45:54;;;;;;;2.53;1.52;;;14.00;99.90;;;;;;4930479;29;20024;-60
2023/09/30 06:48:21;;;;;;;3.38;1.42;;;14.00;99.90;;;;;;4930057;29;20127;-59
2023/09/30 06:50:48;;;;;;;5.53;1.83;;;14.00;99.90;;;;;;4928863;29;20028;-59
2023/09/30 06:53:18;;;;;;;4.40;1.77;;;13.90;99.90;;;;;;4929262;29;20071;-60
2023/09/30 06:55:44;;;;;;;4.55;1.75;;;13.90;99.90;;;;;;4929684;29;20043;-60
2023/09/30 06:58:10;;;;;;;4.40;1.33;;;13.90;99.90;;;;;;4929681;29;20060;-58
2023/09/30 07:00:42;;;;;;;3.05;1.40;;;13.90;99.90;;;;;;4928906;29;20472;-60
2023/09/30 07:03:09;;;;;;;3.08;1.38;;;13.90;99.90;;;;;;4928982;29;20496;-59
2023/09/30 07:05:36;;;;;;;3.47;1.48;;;13.90;99.90;;;;;;4926030;29;20125;-59
2023/09/30 07:08:02;;;;;;;5.32;1.30;;;14.00;99.90;;;;;;4929190;29;20020;-59
2023/09/30 07:10:31;;;;;;;3.90;1.38;;;14.00;99.90;;;;;;4930178;29;20035;-59
2023/09/30 07:12:57;;;;;;;2.70;1.50;;;14.10;99.90;;;;;;4929903;28;20028;-60
2023/09/30 07:15:23;;;;;;;3.05;1.52;;;14.10;99.90;;;;;;4930003;29;20099;-59
2023/09/30 07:17:48;;;;;;;4.68;1.67;;;14.20;99.90;;;;;;4929078;28;20030;-59
2023/09/30 07:20:14;;;;;;;5.38;1.70;;;14.30;99.90;;;;;;4927966;29;20488;-59
2023/09/30 07:22:40;;;;;;;4.38;1.40;;;14.40;99.90;;;;;;4917664;29;20055;-59
2023/09/30 07:25:07;;;;;;;4.43;1.70;;;14.40;99.90;;;;;;4929791;29;20047;-60
2023/09/30 07:27:33;;;;;;;4.95;1.58;;;14.40;99.90;;;;;;4929676;29;20404;-60
2023/09/30 07:29:59;;;;;;;3.63;1.40;;;14.40;99.90;;;;;;4927245;29;20035;-60
2023/09/30 07:32:25;;;;;;;3.67;1.60;;;14.50;99.90;;;;;;4894895;29;20031;-59
2023/09/30 07:34:52;;;;;;;3.45;1.30;;;14.50;99.90;;;;;;4914894;29;20408;-60
2023/09/30 07:37:18;;;;;;;4.90;1.50;;;14.50;99.90;;;;;;4931467;29;20084;-60
2023/09/30 07:39:45;;;;;;;3.42;1.40;;;14.60;99.90;;;;;;4930808;29;20032;-60
2023/09/30 07:42:11;;;;;;;3.00;1.30;;;14.70;99.90;;;;;;4929751;28;20161;-59
2023/09/30 07:44:39;;;;;;;4.10;2.38;;;14.80;99.90;;;;;;4926188;29;20053;-62
2023/09/30 07:47:09;;;;;;;2.63;1.50;;;14.80;99.90;;;;;;4930459;29;20107;-59
2023/09/30 07:49:35;;;;;;;4.03;1.52;;;14.90;99.90;;;;;;4928635;28;20043;-60
2023/09/30 07:52:00;;;;;;;2.22;1.35;;;14.90;99.90;;;;;;4930435;29;20047;-60
2023/09/30 07:54:26;;;;;;;4.63;1.50;;;15.00;99.90;;;;;;4927816;29;20116;-59
2023/09/30 07:56:52;;;;;;;3.35;1.30;;;14.90;99.90;;;;;;4929043;29;20069;-60
2023/09/30 07:59:17;;;;;;;4.40;1.50;;;14.90;99.90;;;;;;4930455;29;20031;-60
2023/09/30 08:01:43;;;;;;;3.05;1.40;;;14.90;99.90;;;;;;4927516;29;20512;-59
2023/09/30 08:04:09;;;;;;;3.60;1.42;;;14.90;99.90;;;;;;4927863;29;20039;-60
2023/09/30 08:06:34;;;;;;;4.38;1.55;;;14.90;99.90;;;;;;4930534;29;20115;-60
2023/09/30 08:09:00;;;;;;;3.63;1.90;;;15.00;99.90;;;;;;4927131;29;20374;-59
2023/09/30 08:11:30;;;;;;;9.77;2.15;;;15.10;99.90;;;;;;4928903;29;20032;-60
2023/09/30 08:13:56;;;;;;;3.05;1.58;;;15.30;99.90;;;;;;4930157;29;20024;-59
2023/09/30 08:16:22;;;;;;;3.60;1.92;;;15.30;99.90;;;;;;4928945;29;20067;-60
2023/09/30 08:18:47;;;;;;;4.82;1.33;;;15.50;99.90;;;;;;4926253;29;20497;-59
2023/09/30 08:21:14;;;;;;;2.17;1.20;;;15.60;99.90;;;;;;4927661;29;20139;-59
2023/09/30 08:23:40;;;;;;;3.72;1.55;;;15.70;99.90;;;;;;4930244;28;20098;-61
2023/09/30 08:26:05;;;;;;;6.43;1.50;;;15.90;99.90;;;;;;4930102;29;20461;-60
2023/09/30 08:28:32;;;;;;;2.45;1.40;;;16.00;99.90;;;;;;4929740;29;20042;-60
2023/09/30 08:31:05;;;;;;;4.03;1.30;;;16.00;99.90;;;;;;4930421;28;20028;-60
2023/09/30 08:33:31;;;;;;;3.58;1.75;;;16.10;99.90;;;;;;4929711;29;20036;-60
2023/09/30 08:36:06;;;;;;;2.35;1.10;;;16.20;99.90;;;;;;4929267;28;20396;-59
2023/09/30 08:38:33;;;;;;;3.63;1.40;;;16.20;99.90;;;;;;4928640;29;20030;-59
2023/09/30 08:40:59;;;;;;;2.72;1.27;;;16.30;99.90;;;;;;4925817;29;20054;-59
2023/09/30 08:43:31;;;;;;;4.00;1.30;;;16.50;99.90;;;;;;4930115;29;20127;-60
2023/09/30 08:45:59;;;;;;;3.50;1.30;;;16.60;99.90;;;;;;4928609;29;20034;-60
2023/09/30 08:48:27;;;;;;;2.78;1.33;;;16.80;99.90;;;;;;4924038;29;20525;-60
2023/09/30 08:50:54;;;;;;;3.15;1.50;;;16.80;99.90;;;;;;4925888;29;20052;-59
2023/09/30 08:53:21;;;;;;;6.13;1.52;;;16.80;99.90;;;;;;4926402;29;20028;-60
2023/09/30 08:55:47;;;;;;;3.28;1.10;;;16.90;99.90;;;;;;4926933;29;20056;-60
2023/09/30 08:58:13;;;;;;;2.70;1.17;;;17.00;99.90;;;;;;4924652;29;20115;-59
2023/09/30 09:00:39;;;;;;;3.20;1.10;;;17.10;99.90;;;;;;4921634;29;20457;-59
2023/09/30 09:03:08;;;;;;;2.72;1.20;;;17.30;99.90;;;;;;4928320;28;20492;-60
2023/09/30 09:05:34;;;;;;;7.43;1.90;;;18.00;99.90;;;;;;4927078;29;20412;-60
2023/09/30 09:08:00;;;;;;;2.97;2.03;;;19.10;99.90;;;;;;4925253;29;20024;-60
2023/09/30 09:10:26;;;;;;;2.85;2.05;;;20.20;99.90;;;;;;4923274;29;20563;-60
2023/09/30 09:12:59;;;;;;;2.53;1.00;;;21.20;99.90;;;;;;4931076;29;20040;-60
2023/09/30 09:15:26;;;;;;;2.15;1.20;;;22.30;99.90;;;;;;4927071;28;20031;-60
2023/09/30 09:17:52;;;;;;;4.55;1.30;;;23.00;99.10;;;;;;4927203;29;20832;-60
2023/09/30 09:20:28;;;;;;;4.97;1.70;;;23.10;91.50;;;;;;4925529;29;20508;-60
2023/09/30 09:22:55;;;;;;;3.60;1.73;;;23.10;91.20;;;;;;4924324;29;20795;-60
2023/09/30 09:25:24;;;;;;;2.63;1.10;;;22.90;88.80;;;;;;4925309;29;20040;-60
2023/09/30 09:27:51;;;;;;;4.80;1.63;;;22.60;90.80;;;;;;4926997;29;20031;-60
2023/09/30 09:30:22;;;;;;;3.22;1.55;;;22.40;91.90;;;;;;4927602;29;20036;-59
2023/09/30 09:33:02;;;;;;;4.37;1.97;;;22.10;91.60;;;;;;4927051;28;20392;-60
2023/09/30 09:35:30;;;;;;;3.28;1.45;;;21.60;93.40;;;;;;4925090;29;20652;-60
2023/09/30 09:38:00;;;;;;;4.20;1.63;;;21.00;94.90;;;;;;4926868;29;20042;-60
2023/09/30 09:40:28;;;;;;;2.87;1.30;;;20.40;98.40;;;;;;4927821;29;20043;-59
2023/09/30 09:42:55;;;;;;;2.90;1.38;;;20.20;99.90;;;;;;4927133;29;20349;-59
2023/09/30 09:45:25;;;;;;;4.60;1.45;;;20.30;99.90;;;;;;4927142;29;20043;-60
2023/09/30 09:47:52;;;;;;;2.50;1.13;;;20.60;99.90;;;;;;4927478;29;20743;-60
2023/09/30 09:50:22;;;;;;;2.85;1.48;;;20.80;99.90;;;;;;4926692;29;20036;-60
2023/09/30 09:52:53;;;;;;;2.90;1.38;;;21.10;99.90;;;;;;4926637;29;20059;-60
2023/09/30 09:55:21;;;;;;;2.88;1.65;;;21.30;99.20;;;;;;4928449;29;20075;-60
2023/09/30 09:57:48;;;;;;;2.60;1.63;;;21.60;95.20;;;;;;4924612;29;20035;-60
2023/09/30 10:00:23;;;;;;;2.08;1.30;;;21.40;93.10;;;;;;4926600;29;20035;-59
2023/09/30 10:02:50;;;;;;;3.90;1.20;;;21.10;94.10;;;;;;4930589;29;20718;-59
2023/09/30 10:05:17;;;;;;;4.22;1.27;;;20.90;98.20;;;;;;4931805;29;20023;-59
2023/09/30 10:08:00;;;;;;;4.03;1.25;;;21.00;99.90;;;;;;4930927;29;20039;-60
2023/09/30 10:10:28;;;;;;;2.65;1.35;;;21.20;96.70;;;;;;4931521;29;20059;-59
2023/09/30 10:12:53;;;;;;;3.67;1.52;;;21.40;94.90;;;;;;4930507;29;20039;-59
2023/09/30 10:15:25;;;;;;;5.53;1.80;;;21.50;93.00;;;;;;4929709;29;20149;-60
2023/09/30 10:18:04;;;;;;;2.40;1.40;;;21.50;92.90;;;;;;4927987;29;20023;-59
2023/09/30 10:20:31;;;;;;;8.52;2.15;;;21.30;93.30;;;;;;4929914;29;20118;-60
2023/09/30 10:23:22;;;;;;;3.45;1.38;;;21.30;92.50;;;;;;4917405;29;20069;-59
2023/09/30 10:25:49;;;;;;;;;;;21.00;91.90;;;;;;4927179;29;20036;-59
2023/09/30 10:28:41;;;;;;;6.95;1.50;;;20.70;92.20;;;;;;4930161;29;19966;-60
2023/09/30 10:31:12;;;;;;;2.47;1.50;;;20.70;94.20;;;;;;4927285;29;20043;-59
2023/09/30 10:34:04;;;;;;;2.70;1.30;;;20.50;93.70;;;;;;4931299;29;20042;-60
2023/09/30 10:36:41;;;;;;;3.88;1.90;;;20.40;95.00;;;;;;4929465;29;20032;-60
2023/09/30 10:39:13;;;;;;;2.42;1.40;;;20.20;95.30;;;;;;4927345;29;20032;-58
2023/09/30 10:41:39;;;;;;;3.15;1.77;;;20.10;97.30;;;;;;4928636;29;20127;-59
2023/09/30 10:44:25;;;;;;;2.22;1.10;;;20.00;95.10;;;;;;4931390;29;20447;-59
2023/09/30 10:47:20;;;;;;;3.58;1.42;;;19.90;97.00;;;;;;4929111;29;20036;-59
2023/09/30 10:49:46;;;;;;;3.40;1.52;;;19.90;96.40;;;;;;4913379;29;20039;-59
2023/09/30 10:52:25;;;;;;;3.70;1.35;;;20.00;98.90;;;;;;4927671;29;20020;-59
2023/09/30 10:54:51;;;;;;;1.98;1.10;;;20.00;97.40;;;;;;4928688;29;20035;-59
2023/09/30 10:57:30;;;;;;;3.58;1.50;;;19.90;96.60;;;;;;4926105;29;20058;-59
2023/09/30 11:00:12;;;;;;;3.45;1.33;;;19.90;98.40;;;;;;4926832;29;20039;-59
2023/09/30 11:02:51;;;;;;;3.38;1.23;;;19.90;99.70;;;;;;4926011;29;20028;-60
2023/09/30 11:05:18;;;;;;;2.35;1.38;;;19.90;99.60;;;;;;4927712;29;20804;-59
2023/09/30 11:07:47;;;;;;;2.40;1.35;;;19.90;99.30;;;;;;4927078;28;20569;-58
2023/09/30 11:10:16;;;;;;;3.40;1.17;;;19.90;99.90;;;;;;4926770;29;20054;-59
2023/09/30 11:12:54;;;;;;;3.95;1.48;;;19.90;99.90;;;;;;4927648;28;20523;-58
2023/09/30 11:15:19;;;;;;;3.33;1.50;;;19.80;99.90;;;;;;4927259;29;20043;-59
2023/09/30 11:17:45;;;;;;;1999.90;999.90;;;19.70;99.90;;;;;;4923212;29;20084;-59
2023/09/30 11:20:11;;;;;;;1999.90;999.90;;;19.80;99.90;;;;;;4926939;29;20400;-59
2023/09/30 11:22:39;;;;;;;1999.90;999.90;;;19.80;99.90;;;;;;4927687;29;20047;-60
2023/09/30 11:25:05;;;;;;;1999.90;999.90;;;19.80;99.90;;;;;;4925036;29;20039;-60
2023/09/30 11:27:31;;;;;;;1999.90;999.90;;;19.70;99.90;;;;;;4926184;29;20024;-59
2023/09/30 11:29:58;;;;;;;1999.90;999.90;;;19.70;99.20;;;;;;4927531;29;20034;-60
2023/09/30 11:32:28;;;;;;;1505.90;754.92;;;19.60;96.70;;;;;;4928350;29;20111;-60
2023/09/30 11:34:54;;;;;;;1999.90;999.90;;;19.70;99.90;;;;;;4927140;29;20155;-59
2023/09/30 11:37:21;;;;;;;1999.90;999.90;;;19.80;99.90;;;;;;4926554;29;20032;-58
2023/09/30 11:39:47;;;;;;;1999.90;999.90;;;19.90;97.30;;;;;;4913380;29;20032;-60
2023/09/30 11:42:17;;;;;;;1999.90;999.90;;;19.80;95.80;;;;;;4929844;29;20055;-58
2023/09/30 11:44:47;;;;;;;1999.90;999.90;;;19.90;98.20;;;;;;4928893;29;20121;-59
2023/09/30 11:47:14;;;;;;;1999.90;999.90;;;20.00;93.60;;;;;;4930257;29;20028;-59
2023/09/30 11:49:44;;;;;;;1999.90;999.90;;;20.00;94.40;;;;;;4925366;29;20076;-60
2023/09/30 11:52:15;;;;;;;1999.90;999.90;;;20.20;93.30;;;;;;4927356;29;20547;-60
2023/09/30 11:54:42;;;;;;;1999.90;999.90;;;20.40;95.00;;;;;;4924121;29;20075;-60
2023/09/30 11:57:09;;;;;;;1999.90;999.90;;;20.60;90.70;;;;;;4927725;29;20030;-60
2023/09/30 11:59:40;;;;;;;1999.90;999.90;;;20.60;91.00;;;;;;4926568;29;20015;-60
2023/09/30 12:02:08;;;;;;;1999.90;999.90;;;20.60;90.20;;;;;;4927261;29;20107;-60
2023/09/30 12:04:34;;;;;;;1999.90;999.90;;;20.60;91.00;;;;;;4925939;29;20028;-60
2023/09/30 12:07:00;;;;;;;1999.90;999.90;;;20.60;89.80;;;;;;4926708;29;20052;-58
2023/09/30 12:09:27;;;;;;;1999.90;999.90;;;20.50;88.00;;;;;;4925378;28;20550;-59
2023/09/30 12:11:53;;;;;;;1999.90;999.90;;;20.40;85.30;;;;;;4924109;29;20065;-60
2023/09/30 12:14:20;;;;;;;1999.90;999.90;;;20.60;88.70;;;;;;4931805;29;20031;-60
2023/09/30 12:16:47;;;;;;;1999.90;999.90;;;20.80;89.30;;;;;;4924969;28;20036;-59
2023/09/30 12:19:15;;;;;;;1999.90;999.90;;;20.90;89.00;;;;;;4926378;29;20043;-59
2023/09/30 12:21:41;;;;;;;1999.90;999.90;;;21.00;87.80;;;;;;4927333;29;20047;-59
2023/09/30 12:24:09;;;;;;;1999.90;999.90;;;21.10;83.60;;;;;;4924609;29;20111;-60
2023/09/30 12:26:36;;;;;;;1999.90;999.90;;;21.10;82.80;;;;;;4922903;29;20036;-60
2023/09/30 12:29:01;;;;;;;1999.90;999.90;;;21.10;81.20;;;;;;4910074;29;20464;-59
2023/09/30 12:31:27;;;;;;;1.13;0.82;;;21.10;81.20;;;;;;4927157;29;20039;-59
2023/09/30 12:33:53;;;;;;;2.25;0.52;;;21.10;82.50;;;;;;4927898;29;20044;-60
2023/09/30 12:36:19;;;;;;;4.82;0.70;;;21.10;80.80;;;;;;4927521;29;20035;-59
2023/09/30 12:38:45;;;;;;;0.40;0.40;;;21.00;81.30;;;;;;4927311;29;20072;-59
2023/09/30 12:41:11;;;;;;;1.15;0.73;;;21.00;81.90;;;;;;4928167;29;20391;-60